Time;durP1;ratioP1;P1;durP2;ratioP2;P2;SDS_P1;SDS_P2;PMS_P1;PMS_P2;Temp;Humidity;BMP_temperature;BMP_pressure;BME280_temperature;BME280_humidity;BME280_pressure;Samples;Min_cycle;Max_cycle;Signal;HPM_P1;HPM_P2
2021/01/26 00:02:14;;;;;;;38.95;15.75;;;;;;;28.81;54.74;101046.91;4826791;29;66210;-31
2021/01/26 00:04:45;;;;;;;41.60;18.30;;;;;;;28.82;54.70;101045.88;4827732;29;70665;-30
2021/01/26 00:07:16;;;;;;;59.35;18.85;;;;;;;28.96;55.30;101035.94;4825155;29;65725;-32
2021/01/26 00:09:47;;;;;;;61.95;18.73;;;;;;;28.98;54.65;101039.28;4819399;29;69847;-33
2021/01/26 00:12:18;;;;;;;47.67;19.63;;;;;;;29.13;54.56;101047.22;4826274;29;65999;-32
2021/01/26 00:14:48;;;;;;;43.58;20.88;;;;;;;29.11;54.95;101054.69;4824400;29;71123;-31
2021/01/26 00:17:19;;;;;;;51.08;20.13;;;;;;;29.12;54.71;101050.97;4823897;29;65987;-31
2021/01/26 00:19:50;;;;;;;50.50;21.58;;;;;;;29.13;55.34;101058.03;4824052;29;70758;-30
2021/01/26 00:22:21;;;;;;;55.33;25.67;;;;;;;29.14;55.61;101059.69;4825785;29;65886;-31
2021/01/26 00:24:51;;;;;;;60.65;29.90;;;;;;;29.10;56.42;101059.28;4825695;29;69473;-31
2021/01/26 00:27:22;;;;;;;60.60;36.40;;;;;;;29.09;56.78;101067.59;4822680;29;65970;-30
2021/01/26 00:29:52;;;;;;;64.82;36.78;;;;;;;29.12;57.08;101067.19;4825508;29;70457;-32
2021/01/26 00:32:23;;;;;;;81.93;45.55;;;;;;;29.19;56.98;101070.72;4826035;29;66464;-31
2021/01/26 00:34:54;;;;;;;86.78;46.28;;;;;;;29.20;57.54;101077.81;4818071;29;69939;-31
2021/01/26 00:37:25;;;;;;;90.93;46.70;;;;;;;29.25;57.04;101077.16;4821892;29;67209;-31
2021/01/26 00:39:56;;;;;;;81.00;44.00;;;;;;;29.32;57.70;101078.03;4821580;29;69382;-31
2021/01/26 00:42:33;;;;;;;90.63;47.08;;;;;;;29.26;57.29;101085.09;4825531;29;64326;-31
2021/01/26 00:45:07;;;;;;;98.15;47.85;;;;;;;29.23;58.24;101084.66;4821414;29;70027;-30
2021/01/26 00:47:46;;;;;;;94.95;49.58;;;;;;;29.31;58.07;101092.56;4824240;29;66921;-30
2021/01/26 00:50:20;;;;;;;97.25;56.90;;;;;;;29.23;58.51;101090.91;4796381;29;69526;-35
2021/01/26 00:52:52;;;;;;;98.38;59.08;;;;;;;29.26;57.80;101095.88;4822287;29;66571;-33
2021/01/26 00:55:33;;;;;;;101.63;61.47;;;;;;;29.25;58.31;101091.50;4824518;29;69314;-29
2021/01/26 00:58:05;;;;;;;106.55;63.92;;;;;;;29.18;59.51;101098.78;4822054;29;66129;-33
2021/01/26 01:00:39;;;;;;;89.68;60.92;;;;;;;29.27;58.91;101102.94;4819020;29;69050;-31
2021/01/26 01:03:17;;;;;;;104.25;63.88;;;;;;;29.19;59.33;101103.13;4824593;29;66030;-32
2021/01/26 01:05:48;;;;;;;109.15;70.25;;;;;;;29.16;59.41;101112.47;4824513;29;69633;-31
2021/01/26 01:08:18;;;;;;;104.05;69.15;;;;;;;29.10;59.55;101117.88;4820119;29;65299;-30
2021/01/26 01:10:52;;;;;;;111.57;72.25;;;;;;;29.08;60.23;101119.94;4812315;29;69402;-33
2021/01/26 01:13:22;;;;;;;115.72;68.70;;;;;;;29.09;60.16;101127.84;4824580;29;66197;-32
2021/01/26 01:15:53;;;;;;;119.95;69.65;;;;;;;29.15;60.11;101135.13;4826078;29;70018;-32
2021/01/26 01:18:25;;;;;;;100.25;64.22;;;;;;;29.16;59.53;101135.97;4825661;29;66634;-31
2021/01/26 01:20:56;;;;;;;98.22;65.25;;;;;;;28.98;59.99;101111.38;4826087;29;70062;-32
2021/01/26 01:23:26;;;;;;;104.30;66.78;;;;;;;29.16;59.41;101142.19;4825552;29;65830;-31
2021/01/26 01:26:01;;;;;;;112.72;65.38;;;;;;;29.13;59.63;101139.06;4824225;29;69979;-31
2021/01/26 01:28:31;;;;;;;103.65;67.13;;;;;;;29.14;59.31;101135.31;4826984;29;66027;-31
2021/01/26 01:31:02;;;;;;;104.68;67.28;;;;;;;29.20;59.24;101139.94;4822182;29;69477;-30
2021/01/26 01:33:33;;;;;;;98.60;64.05;;;;;;;29.19;59.15;101135.56;4824242;29;65262;-30
2021/01/26 01:36:04;;;;;;;91.93;61.50;;;;;;;29.20;59.02;101133.69;4813363;29;70021;-30
2021/01/26 01:38:35;;;;;;;105.03;62.63;;;;;;;29.18;59.33;101142.00;4825865;29;65911;-33
2021/01/26 01:41:06;;;;;;;91.80;62.33;;;;;;;29.20;59.01;101134.53;4826463;29;70013;-33
2021/01/26 01:43:37;;;;;;;83.30;58.85;;;;;;;29.26;59.12;101149.94;4824538;29;65586;-31
2021/01/26 01:46:16;;;;;;;83.47;57.42;;;;;;;29.25;59.22;101148.25;4822029;29;69480;-31
2021/01/26 01:48:49;;;;;;;84.38;57.60;;;;;;;29.26;58.90;101143.69;4826930;29;66607;-31
2021/01/26 01:51:23;;;;;;;90.10;58.78;;;;;;;29.22;58.68;101137.84;4825409;29;70974;-32
2021/01/26 01:53:59;;;;;;;85.35;54.03;;;;;;;29.30;59.13;101140.38;4816738;29;65453;-31
2021/01/26 01:57:00;;;;;;;82.95;55.13;;;;;;;29.37;58.96;101135.00;4821623;29;69668;-31
2021/01/26 01:59:53;;;;;;;106.70;65.45;;;;;;;29.56;58.80;101141.47;4826091;29;65019;-32
2021/01/26 02:02:26;;;;;;;113.15;70.20;;;;;;;29.51;58.40;101152.06;4824600;29;69930;-30
2021/01/26 02:05:02;;;;;;;118.50;70.35;;;;;;;29.51;58.75;101141.28;4821664;29;65270;-31
2021/01/26 02:07:34;;;;;;;110.35;70.10;;;;;;;29.47;58.19;101145.41;4823474;29;68896;-30
2021/01/26 02:10:06;;;;;;;109.45;67.72;;;;;;;29.42;58.65;101137.94;4825311;29;66855;-30
2021/01/26 02:12:36;;;;;;;105.35;66.97;;;;;;;29.40;58.70;101151.63;4824515;29;69803;-31
2021/01/26 02:15:08;;;;;;;98.30;66.03;;;;;;;29.41;58.40;101147.06;4819823;29;65384;-30
2021/01/26 02:17:48;;;;;;;119.78;66.18;;;;;;;29.45;58.85;101148.31;4824000;29;69131;-31
2021/01/26 02:20:49;;;;;;;99.57;66.50;;;;;;;29.41;59.02;101141.66;4824704;29;65206;-30
2021/01/26 02:23:49;;;;;;;119.60;65.20;;;;;;;29.25;58.77;101117.69;4818886;29;69760;-30
2021/01/26 02:26:46;;;;;;;101.03;62.33;;;;;;;29.43;58.88;101144.97;4823392;29;64581;-30
2021/01/26 02:29:29;;;;;;;98.35;61.10;;;;;;;29.49;58.34;101148.75;4823825;29;69128;-30
2021/01/26 02:32:21;;;;;;;93.63;57.20;;;;;;;29.39;58.67;101138.31;4825998;29;65298;-30
2021/01/26 02:35:10;;;;;;;95.90;52.65;;;;;;;29.50;58.10;101134.19;4816639;29;69767;-31
2021/01/26 02:38:10;;;;;;;90.82;54.70;;;;;;;29.49;58.01;101127.13;4825445;29;66506;-31
2021/01/26 02:41:01;;;;;;;95.80;54.10;;;;;;;29.53;57.88;101128.34;4823698;29;69936;-30
2021/01/26 02:44:00;;;;;;;78.20;53.13;;;;;;;29.56;58.08;101127.94;4827751;29;66040;-30
2021/01/26 02:46:50;;;;;;;86.65;54.60;;;;;;;29.59;57.75;101122.16;4828368;29;70047;-30
2021/01/26 02:49:39;;;;;;;81.90;52.58;;;;;;;29.57;58.01;101125.06;4816727;29;65394;-30
2021/01/26 02:52:24;;;;;;;91.70;52.55;;;;;;;29.49;58.14;101116.31;4828934;29;69345;-29
2021/01/26 02:55:22;;;;;;;88.47;51.33;;;;;;;29.65;57.68;101125.94;4829001;29;65231;-30
2021/01/26 02:58:10;;;;;;;78.18;50.08;;;;;;;29.64;57.18;101125.06;4827893;29;70284;-29
2021/01/26 03:00:41;;;;;;;75.53;46.17;;;;;;;29.76;57.22;101131.56;4826552;29;65619;-30
2021/01/26 03:03:27;;;;;;;76.28;49.40;;;;;;;29.67;57.00;101130.09;4828041;29;69108;-30
2021/01/26 03:06:04;;;;;;;81.72;49.85;;;;;;;29.78;57.08;101121.38;4829242;29;66619;-30
2021/01/26 03:08:47;;;;;;;99.00;51.95;;;;;;;29.67;57.13;101097.66;4826543;29;70352;-30
2021/01/26 03:11:27;;;;;;;78.82;52.45;;;;;;;29.83;57.14;101120.72;4829324;29;65987;-30
2021/01/26 03:14:26;;;;;;;81.85;51.25;;;;;;;29.89;57.34;101116.38;4824863;29;69161;-30
2021/01/26 03:17:08;;;;;;;78.35;44.75;;;;;;;29.64;56.24;101067.47;4825963;29;65320;-31
2021/01/26 03:19:40;;;;;;;77.40;46.67;;;;;;;29.98;56.71;101109.72;4827163;29;69239;-31
2021/01/26 03:22:12;;;;;;;;;;;;;;;29.99;56.35;101105.97;4827507;29;65162;-31
2021/01/26 03:24:45;;;;;;;92.70;49.50;;;;;;;30.06;56.41;101106.78;4824032;29;70567;-31
2021/01/26 03:27:17;;;;;;;;;;;;;;;29.98;56.23;101098.91;4827009;29;65967;-30
2021/01/26 03:29:52;;;;;;;70.07;49.97;;;;;;;30.08;56.30;101088.47;4827845;29;69286;-30
2021/01/26 03:32:27;;;;;;;75.10;48.30;;;;;;;30.15;55.97;101089.31;4827576;29;66186;-30
2021/01/26 03:34:58;;;;;;;72.35;46.83;;;;;;;30.13;55.65;101080.56;4827319;29;70512;-30
2021/01/26 03:37:29;;;;;;;64.70;45.03;;;;;;;30.11;56.23;101081.81;4827188;29;66130;-29
2021/01/26 03:39:59;;;;;;;67.72;45.47;;;;;;;30.19;56.25;101085.13;4826883;29;70797;-31
2021/01/26 03:42:32;;;;;;;78.82;44.08;;;;;;;30.13;55.75;101069.75;4824426;29;65472;-30
2021/01/26 03:45:06;;;;;;;66.40;42.33;;;;;;;30.17;55.55;101071.00;4819821;29;69197;-32
2021/01/26 03:47:54;;;;;;;63.92;43.28;;;;;;;30.18;55.62;101061.81;4823943;29;65901;-30
2021/01/26 03:50:43;;;;;;;69.72;43.85;;;;;;;30.26;55.75;101069.75;4824687;29;70821;-30
2021/01/26 03:53:54;;;;;;;62.60;43.45;;;;;;;30.04;55.83;101022.31;4824730;29;66323;-30
2021/01/26 03:56:28;;;;;;;65.15;44.17;;;;;;;30.37;55.81;101070.13;4815566;29;68841;-31
2021/01/26 03:59:23;;;;;;;71.97;44.53;;;;;;;30.42;55.42;101064.91;4826552;29;66484;-30
2021/01/26 04:02:13;;;;;;;66.47;42.28;;;;;;;30.47;55.75;101054.28;4827558;29;70042;-33
2021/01/26 04:05:08;;;;;;;60.85;43.40;;;;;;;30.46;55.33;101047.22;4817908;29;65943;-30
2021/01/26 04:07:53;;;;;;;66.47;45.33;;;;;;;30.43;55.59;101042.22;4825525;29;69181;-31
2021/01/26 04:10:27;;;;;;;69.10;47.08;;;;;;;30.54;55.51;101049.69;4818648;29;65590;-30
2021/01/26 04:13:03;;;;;;;72.47;47.40;;;;;;;30.58;54.95;101037.38;4828425;29;69939;-31
2021/01/26 04:15:46;;;;;;;63.28;44.90;;;;;;;30.65;55.58;101034.66;4825056;29;66227;-29
2021/01/26 04:18:25;;;;;;;68.30;44.75;;;;;;;30.64;54.96;101039.22;4828184;29;70045;-30
2021/01/26 04:20:58;;;;;;;62.83;44.30;;;;;;;30.66;54.82;101037.13;4816320;29;66506;-30
2021/01/26 04:23:29;;;;;;;64.15;43.53;;;;;;;30.73;54.59;101029.81;4825012;29;70311;-30
2021/01/26 04:26:14;;;;;;;58.90;43.15;;;;;;;30.73;54.72;101027.09;4827909;29;65395;-30
2021/01/26 04:28:50;;;;;;;56.38;40.70;;;;;;;30.81;55.42;101023.31;4825589;29;69890;-30
2021/01/26 04:31:22;;;;;;;51.58;40.03;;;;;;;30.82;55.29;101010.63;4827239;29;67343;-31
2021/01/26 04:33:54;;;;;;;56.72;39.22;;;;;;;30.80;55.04;101005.44;4828153;29;70036;-31
2021/01/26 04:36:26;;;;;;;53.65;38.10;;;;;;;30.82;54.97;100997.09;4827519;29;66382;-30
2021/01/26 04:38:57;;;;;;;53.53;39.55;;;;;;;30.84;54.73;100994.97;4826554;29;70362;-30
2021/01/26 04:41:56;;;;;;;55.92;39.63;;;;;;;30.81;55.36;100990.00;4827750;29;66604;-30
2021/01/26 04:44:55;;;;;;;57.70;40.13;;;;;;;30.81;55.44;100981.88;4826044;29;70338;-30
2021/01/26 04:47:32;;;;;;;56.25;37.85;;;;;;;30.86;54.52;100982.06;4823913;29;65939;-30
2021/01/26 04:50:31;;;;;;;58.50;36.85;;;;;;;30.70;52.58;100967.97;4824850;29;70305;-30
2021/01/26 04:53:14;;;;;;;46.13;34.05;;;;;;;30.54;51.10;100973.88;4826513;29;65195;-31
2021/01/26 04:56:04;;;;;;;44.92;34.08;;;;;;;30.32;49.42;100953.59;4827393;29;70210;-31
2021/01/26 04:59:13;;;;;;;44.60;32.05;;;;;;;30.04;48.31;100919.53;4817374;29;65304;-30
2021/01/26 05:02:02;;;;;;;40.20;31.60;;;;;;;30.06;47.81;100949.88;4824253;29;69974;-31
2021/01/26 05:05:09;;;;;;;43.55;32.45;;;;;;;29.93;45.96;100950.78;4826231;29;66409;-30
2021/01/26 05:07:48;;;;;;;36.90;30.95;;;;;;;29.61;46.36;100901.09;4826080;29;70394;-30
2021/01/26 05:10:29;;;;;;;35.72;30.20;;;;;;;29.75;45.17;100937.91;4826570;29;66135;-30
2021/01/26 05:13:23;;;;;;;33.28;29.30;;;;;;;29.67;44.15;100940.84;4825005;29;69966;-30
2021/01/26 05:16:32;;;;;;;35.63;29.02;;;;;;;29.55;43.72;100924.41;4827040;29;66808;-31
2021/01/26 05:19:20;;;;;;;30.17;26.90;;;;;;;29.49;43.03;100921.72;4815678;29;70748;-30
2021/01/26 05:22:18;;;;;;;36.63;29.60;;;;;;;29.46;42.52;100919.44;4822183;29;65284;-30
2021/01/26 05:25:01;;;;;;;32.30;27.30;;;;;;;29.48;41.99;100912.78;4821082;29;70042;-31
2021/01/26 05:27:36;;;;;;;34.22;27.45;;;;;;;29.39;42.73;100904.06;4819239;29;43489;-30
2021/01/26 05:30:11;;;;;;;37.10;27.92;;;;;;;29.26;42.51;100885.16;4825456;29;69238;-31
2021/01/26 05:32:45;;;;;;;33.28;28.23;;;;;;;29.37;42.52;100898.03;4827554;29;65947;-30
2021/01/26 05:35:17;;;;;;;37.13;28.45;;;;;;;29.37;42.06;100892.63;4816841;29;70011;-30
2021/01/26 05:37:50;;;;;;;31.45;26.30;;;;;;;29.34;42.23;100890.34;4814359;29;66368;-30
2021/01/26 05:40:23;;;;;;;36.50;27.00;;;;;;;29.31;41.31;100881.81;4821137;29;70084;-30
2021/01/26 05:42:57;;;;;;;29.63;26.42;;;;;;;29.27;40.85;100862.50;4817428;29;66305;-30
2021/01/26 05:45:36;;;;;;;34.83;26.67;;;;;;;29.28;41.31;100861.47;4824677;29;69338;-31
2021/01/26 05:48:13;;;;;;;27.98;25.08;;;;;;;29.25;40.98;100856.47;4826309;29;65316;-30
2021/01/26 05:50:47;;;;;;;35.50;24.60;;;;;;;29.10;40.67;100829.69;4821417;29;69201;-31
2021/01/26 05:53:31;;;;;;;;;;;;;;;29.20;40.15;100848.19;4822338;29;65973;-30
2021/01/26 05:56:16;;;;;;;30.20;24.63;;;;;;;29.17;39.48;100837.78;4817269;29;69305;-30
2021/01/26 05:58:47;;;;;;;26.75;23.95;;;;;;;29.19;40.34;100830.28;4824720;29;66692;-31
2021/01/26 06:01:27;;;;;;;27.75;24.83;;;;;;;29.16;39.31;100828.00;4821940;29;69222;-31
2021/01/26 06:04:04;;;;;;;28.85;23.58;;;;;;;29.09;39.10;100829.91;4817217;29;65012;-30
2021/01/26 06:06:59;;;;;;;29.15;24.58;;;;;;;29.05;39.49;100812.44;4824930;29;70125;-30
2021/01/26 06:09:38;;;;;;;26.58;23.75;;;;;;;29.16;39.25;100814.50;4820618;29;66302;-30
2021/01/26 06:12:25;;;;;;;25.98;23.38;;;;;;;29.16;39.39;100809.09;4814187;29;70253;-29
2021/01/26 06:14:57;;;;;;;29.63;24.05;;;;;;;29.14;39.25;100801.22;4826096;29;65957;-30
2021/01/26 06:17:36;;;;;;;26.33;22.98;;;;;;;29.10;37.94;100793.75;4828763;29;70224;-30
2021/01/26 06:20:18;;;;;;;25.85;22.70;;;;;;;29.13;38.86;100790.63;4829034;29;65288;-30
2021/01/26 06:22:50;;;;;;;24.48;22.08;;;;;;;29.14;39.14;100789.56;4827864;29;69970;-31
2021/01/26 06:25:33;;;;;;;23.80;21.80;;;;;;;29.15;38.47;100783.16;4827919;29;67380;-31
2021/01/26 06:28:18;;;;;;;24.55;22.30;;;;;;;29.13;38.27;100777.94;4827930;29;70231;-31
2021/01/26 06:31:15;;;;;;;29.58;22.75;;;;;;;29.14;37.73;100776.06;4826586;29;66037;-29
2021/01/26 06:34:04;;;;;;;24.88;22.25;;;;;;;29.14;38.48;100762.56;4827642;29;69450;-29
2021/01/26 06:36:37;;;;;;;23.75;21.20;;;;;;;29.12;37.86;100759.25;4820963;29;66141;-29
2021/01/26 06:39:24;;;;;;;24.65;22.05;;;;;;;29.10;37.33;100751.34;4828306;29;69501;-29
2021/01/26 06:42:14;;;;;;;23.08;20.73;;;;;;;29.17;37.37;100748.66;4822937;29;65447;-29
2021/01/26 06:45:03;;;;;;;24.00;21.50;;;;;;;29.23;37.35;100738.88;4828411;29;69847;-30
2021/01/26 06:48:00;;;;;;;23.08;20.75;;;;;;;29.25;38.21;100732.19;4829274;29;66698;-30
2021/01/26 06:50:36;;;;;;;25.13;21.20;;;;;;;29.27;37.83;100729.28;4821793;29;70564;-30
2021/01/26 06:53:41;;;;;;;25.23;21.80;;;;;;;29.24;37.39;100719.72;4826121;29;66682;-35
2021/01/26 06:56:31;;;;;;;26.95;21.63;;;;;;;29.25;37.18;100721.38;4828581;29;69628;-31
2021/01/26 06:59:08;;;;;;;24.75;21.25;;;;;;;29.30;37.79;100718.06;4821560;29;65999;-30
2021/01/26 07:02:17;;;;;;;23.98;21.65;;;;;;;29.27;37.57;100708.50;4823274;29;70093;-30
2021/01/26 07:05:05;;;;;;;24.60;19.95;;;;;;;29.28;37.36;100704.78;4824448;29;66438;-31
2021/01/26 07:08:24;;;;;;;21.70;19.52;;;;;;;29.25;36.98;100688.97;4828122;29;69806;-31
2021/01/26 07:11:16;;;;;;;21.27;19.17;;;;;;;29.27;36.48;100696.88;4801262;29;66687;-31
2021/01/26 07:13:53;;;;;;;20.97;18.93;;;;;;;29.29;36.87;100692.91;4818498;29;69872;-31
2021/01/26 07:16:30;;;;;;;21.17;19.10;;;;;;;29.28;37.17;100693.13;4828575;29;65628;-31
2021/01/26 07:19:35;;;;;;;23.88;21.27;;;;;;;29.28;36.75;100683.16;4826884;29;69885;-31
2021/01/26 07:22:49;;;;;;;22.13;20.05;;;;;;;29.32;36.96;100689.78;4825626;29;66308;-33
2021/01/26 07:25:54;;;;;;;21.70;19.42;;;;;;;29.19;37.15;100679.03;4824281;29;68395;-31
2021/01/26 07:28:44;;;;;;;21.38;19.33;;;;;;;29.28;36.63;100677.75;4819898;29;65891;-30
2021/01/26 07:31:20;;;;;;;22.10;19.70;;;;;;;29.27;36.57;100675.25;4827604;29;70188;-31
2021/01/26 07:34:27;;;;;;;23.75;19.73;;;;;;;29.27;36.38;100664.44;4826458;29;65597;-30
2021/01/26 07:37:11;;;;;;;21.00;18.88;;;;;;;29.53;37.01;100675.16;4824274;29;69359;-30
2021/01/26 07:39:47;;;;;;;21.45;19.23;;;;;;;29.70;37.38;100661.97;4828215;29;65347;-31
2021/01/26 07:42:28;;;;;;;20.60;18.60;;;;;;;29.88;38.11;100660.41;4827298;29;69780;-31
2021/01/26 07:45:05;;;;;;;26.13;19.45;;;;;;;30.03;38.12;100658.19;4823644;29;65474;-31
2021/01/26 07:47:44;;;;;;;21.02;18.70;;;;;;;30.17;38.24;100656.22;4827334;29;70349;-30
2021/01/26 07:50:40;;;;;;;20.58;18.40;;;;;;;30.25;38.38;100648.66;4827303;29;65750;-31
2021/01/26 07:53:36;;;;;;;37.35;19.33;;;;;;;30.40;38.54;100652.94;4821951;29;69311;-30
2021/01/26 07:56:31;;;;;;;30.67;18.73;;;;;;;30.48;38.89;100656.19;4824509;29;65995;-29
2021/01/26 07:59:15;;;;;;;50.30;25.98;;;;;;;30.60;41.65;100652.75;4826560;29;70775;-30
2021/01/26 08:01:54;;;;;;;44.47;29.30;;;;;;;30.63;43.60;100636.88;4827704;29;66235;-30
2021/01/26 08:04:36;;;;;;;48.53;32.17;;;;;;;30.68;44.41;100623.47;4827330;29;69033;-30
2021/01/26 08:07:07;;;;;;;47.00;34.33;;;;;;;30.92;44.58;100645.31;4822031;29;66045;-30
2021/01/26 08:09:43;;;;;;;60.05;36.08;;;;;;;30.98;45.53;100647.16;4825301;29;69391;-32
2021/01/26 08:12:16;;;;;;;44.78;34.38;;;;;;;31.05;45.81;100644.34;4810816;29;65375;-32
2021/01/26 08:14:52;;;;;;;54.10;37.75;;;;;;;31.21;46.60;100648.31;4826760;29;69893;-31
2021/01/26 08:17:34;;;;;;;44.60;35.88;;;;;;;31.26;46.88;100645.72;4825497;29;66139;-30
2021/01/26 08:20:09;;;;;;;;;;;;;;;31.31;46.98;100649.41;4825340;29;70453;-33
2021/01/26 08:23:00;;;;;;;57.97;37.50;;;;;;;31.34;46.56;100638.13;4825377;29;66056;-31
2021/01/26 08:25:42;;;;;;;46.33;37.60;;;;;;;31.42;47.29;100639.72;4824469;29;69825;-32
2021/01/26 08:28:39;;;;;;;57.85;37.22;;;;;;;31.43;47.26;100640.56;4826760;29;66147;-31
2021/01/26 08:31:30;;;;;;;57.88;38.67;;;;;;;31.34;47.51;100612.91;4825613;29;70521;-33
2021/01/26 08:34:22;;;;;;;54.92;39.03;;;;;;;31.53;47.58;100636.22;4823714;29;65585;-30
2021/01/26 08:37:11;;;;;;;53.38;39.92;;;;;;;31.63;47.30;100646.50;4823064;29;68989;-31
2021/01/26 08:39:44;;;;;;;57.28;40.50;;;;;;;31.67;47.99;100638.75;4823023;29;66758;-31
2021/01/26 08:42:44;;;;;;;52.78;38.53;;;;;;;31.63;48.05;100656.53;4824580;29;70388;-29
2021/01/26 08:45:18;;;;;;;57.03;39.60;;;;;;;31.72;48.44;100655.16;4823118;29;65460;-30
2021/01/26 08:48:21;;;;;;;50.88;38.08;;;;;;;31.74;49.71;100664.69;4824689;29;70760;-29
2021/01/26 08:50:52;;;;;;;57.85;34.25;;;;;;;31.80;50.55;100657.53;4822141;29;67024;-30
2021/01/26 08:53:31;;;;;;;58.78;34.20;;;;;;;31.84;50.67;100647.84;4826626;29;70076;-30
2021/01/26 08:56:25;;;;;;;66.30;33.92;;;;;;;31.90;52.23;100663.22;4825901;29;66799;-30
2021/01/26 08:58:57;;;;;;;72.97;34.15;;;;;;;31.87;51.50;100639.25;4824437;29;71172;-31
2021/01/26 09:01:45;;;;;;;56.85;33.15;;;;;;;31.90;51.09;100640.66;4823437;29;66279;-32
2021/01/26 09:04:16;;;;;;;52.85;31.90;;;;;;;32.04;51.82;100666.59;4823226;29;69581;-31
2021/01/26 09:06:48;;;;;;;55.38;32.05;;;;;;;32.10;51.20;100667.53;4825660;29;65211;-30
2021/01/26 09:09:20;;;;;;;48.95;32.08;;;;;;;32.13;51.77;100661.63;4825197;29;69736;-30
2021/01/26 09:11:56;;;;;;;;;;;;;;;32.17;51.90;100662.81;4826408;29;66731;-31
2021/01/26 09:14:51;;;;;;;64.15;33.63;;;;;;;32.12;51.75;100649.94;4825915;29;69213;-30
2021/01/26 09:17:30;;;;;;;62.33;33.88;;;;;;;32.20;51.89;100674.00;4825890;29;66424;-30
2021/01/26 09:20:16;;;;;;;59.40;34.75;;;;;;;32.18;52.21;100669.88;4824827;29;69865;-31
2021/01/26 09:22:48;;;;;;;58.08;34.97;;;;;;;32.22;51.46;100673.78;4821738;29;66303;-31
2021/01/26 09:25:25;;;;;;;54.88;32.55;;;;;;;32.20;51.74;100667.75;4825998;29;69581;-30
2021/01/26 09:28:11;;;;;;;63.20;33.47;;;;;;;32.20;51.87;100673.19;4826716;29;65713;-30
2021/01/26 09:30:47;;;;;;;53.05;33.55;;;;;;;32.15;52.40;100664.91;4827406;29;70101;-30
2021/01/26 09:33:26;;;;;;;57.28;32.47;;;;;;;32.19;51.99;100669.66;4819403;29;66021;-30
2021/01/26 09:36:04;;;;;;;53.53;30.00;;;;;;;32.24;51.96;100679.81;4824005;29;70625;-31
2021/01/26 09:38:36;;;;;;;46.00;29.77;;;;;;;32.27;51.74;100673.91;4826557;29;65910;-31
2021/01/26 09:41:25;;;;;;;54.08;31.63;;;;;;;32.27;51.81;100685.59;4825966;29;70574;-31
2021/01/26 09:44:20;;;;;;;59.88;30.77;;;;;;;32.32;52.08;100682.19;4825907;29;65893;-31
2021/01/26 09:47:00;;;;;;;58.13;30.98;;;;;;;32.41;51.49;100680.78;4826255;29;70386;-31
2021/01/26 09:49:31;;;;;;;51.42;31.15;;;;;;;32.47;51.09;100677.13;4826697;29;65936;-30
2021/01/26 09:52:18;;;;;;;47.17;30.27;;;;;;;32.36;50.93;100650.78;4829345;29;70556;-30
2021/01/26 09:55:11;;;;;;;47.15;30.88;;;;;;;32.52;50.75;100678.34;4829924;29;66364;-30
2021/01/26 09:57:43;;;;;;;48.33;28.83;;;;;;;32.54;50.78;100678.91;4828715;29;70503;-30
2021/01/26 10:00:17;;;;;;;47.22;29.83;;;;;;;32.58;50.63;100677.38;4828384;29;65883;-31
2021/01/26 10:02:53;;;;;;;45.85;28.88;;;;;;;32.55;50.20;100675.97;4829973;29;69910;-30
2021/01/26 10:05:27;;;;;;;54.95;29.45;;;;;;;32.62;50.60;100686.69;4829099;29;65906;-30
2021/01/26 10:08:21;;;;;;;41.88;28.20;;;;;;;32.59;49.94;100692.59;4827197;29;70330;-30
2021/01/26 10:10:52;;;;;;;39.05;27.10;;;;;;;32.57;50.00;100683.84;4826759;29;65887;-31
2021/01/26 10:13:23;;;;;;;;;;;;;;;32.64;49.87;100698.16;4825455;29;69962;-31
2021/01/26 10:15:55;;;;;;;40.85;27.80;;;;;;;32.65;49.75;100703.38;4827266;29;66259;-30
2021/01/26 10:18:30;;;;;;;41.80;26.90;;;;;;;32.65;49.76;100703.38;4827493;29;69841;-32
2021/01/26 10:21:06;;;;;;;43.70;26.52;;;;;;;32.58;49.73;100696.38;4819526;29;66283;-31
2021/01/26 10:23:43;;;;;;;39.30;26.05;;;;;;;32.63;49.42;100710.09;4822842;29;69729;-31
2021/01/26 10:26:22;;;;;;;39.88;26.75;;;;;;;32.63;49.59;100712.81;4820318;29;66053;-30
2021/01/26 10:29:12;;;;;;;42.25;26.33;;;;;;;32.58;49.65;100723.53;4821099;29;69892;-32
2021/01/26 10:31:49;;;;;;;45.80;25.48;;;;;;;32.45;49.28;100700.94;4827047;29;66101;-31
2021/01/26 10:34:37;;;;;;;35.05;24.20;;;;;;;32.49;49.46;100714.94;4823446;29;70542;-32
2021/01/26 10:37:23;;;;;;;34.92;24.60;;;;;;;32.57;49.76;100721.88;4826189;29;66032;-31
2021/01/26 10:40:15;;;;;;;29.38;23.52;;;;;;;32.55;50.17;100729.44;4824117;29;68947;-31
2021/01/26 10:43:19;;;;;;;37.03;25.20;;;;;;;32.58;49.76;100731.69;4826223;29;65587;-30
2021/01/26 10:45:55;;;;;;;40.20;23.92;;;;;;;32.59;49.84;100731.44;4824442;29;68884;-30
2021/01/26 10:48:43;;;;;;;31.58;24.60;;;;;;;32.57;50.56;100733.59;4820135;29;66017;-30
2021/01/26 10:51:30;;;;;;;34.47;23.98;;;;;;;32.55;50.69;100729.44;4825637;29;69604;-31
2021/01/26 10:54:06;;;;;;;32.80;23.13;;;;;;;32.45;50.01;100709.09;4825893;29;66273;-33
2021/01/26 10:56:37;;;;;;;34.55;24.15;;;;;;;32.58;50.08;100739.84;4824259;29;69846;-32
2021/01/26 10:59:08;;;;;;;36.08;24.27;;;;;;;32.56;49.78;100731.09;4822623;29;66186;-31
2021/01/26 11:01:42;;;;;;;33.40;22.58;;;;;;;32.52;49.92;100738.06;4824768;29;70373;-32
2021/01/26 11:04:14;;;;;;;29.00;22.02;;;;;;;32.53;50.05;100732.38;4822951;29;65444;-30
2021/01/26 11:06:45;;;;;;;29.73;21.83;;;;;;;32.49;49.87;100740.19;4824598;29;69364;-31
2021/01/26 11:09:16;;;;;;;27.67;21.70;;;;;;;32.47;49.78;100739.59;4824982;29;65304;-30
2021/01/26 11:11:47;;;;;;;30.85;21.65;;;;;;;32.51;49.39;100744.53;4823765;29;69445;-33
2021/01/26 11:14:19;;;;;;;37.85;20.85;;;;;;;32.47;49.55;100741.47;4823991;29;66459;-31
2021/01/26 11:16:53;;;;;;;32.97;20.23;;;;;;;32.46;50.07;100747.97;4824559;29;69749;-35
2021/01/26 11:19:25;;;;;;;25.23;19.33;;;;;;;32.44;49.96;100750.06;4818663;29;66142;-33
2021/01/26 11:21:57;;;;;;;22.20;18.83;;;;;;;32.47;50.35;100753.16;4821482;29;71140;-30
2021/01/26 11:24:28;;;;;;;21.52;19.25;;;;;;;32.42;50.83;100747.56;4823469;29;66185;-31
2021/01/26 11:26:59;;;;;;;25.75;19.23;;;;;;;32.45;50.48;100755.25;4820328;29;70218;-31
2021/01/26 11:29:30;;;;;;;24.45;18.17;;;;;;;32.44;50.83;100764.47;4823400;29;66204;-31
2021/01/26 11:32:02;;;;;;;21.17;17.98;;;;;;;32.43;50.84;100770.97;4822923;29;70400;-31
2021/01/26 11:34:32;;;;;;;25.42;16.65;;;;;;;32.43;51.40;100770.97;4811469;29;66337;-31
2021/01/26 11:37:03;;;;;;;24.35;16.63;;;;;;;32.37;51.08;100761.00;4823864;29;70287;-31
2021/01/26 11:39:36;;;;;;;30.70;15.00;;;;;;;32.35;50.72;100774.00;4819676;29;66721;-33
2021/01/26 11:42:08;;;;;;;28.33;14.13;;;;;;;32.30;49.49;100768.44;4823542;29;69350;-31
2021/01/26 11:44:39;;;;;;;25.17;13.52;;;;;;;32.30;49.67;100771.16;4807480;29;64897;-31
2021/01/26 11:47:10;;;;;;;18.90;13.50;;;;;;;32.29;49.12;100772.22;4823146;29;69430;-30
2021/01/26 11:49:41;;;;;;;21.10;12.38;;;;;;;32.28;49.16;100773.28;4819805;29;67041;-30
2021/01/26 11:52:12;;;;;;;23.35;13.45;;;;;;;32.27;49.79;100777.06;4822229;29;69940;-31
2021/01/26 11:54:44;;;;;;;24.40;13.80;;;;;;;32.27;49.73;100782.50;4818463;29;65626;-31
2021/01/26 11:57:14;;;;;;;;;;;;;;;32.18;49.44;100783.84;4802271;29;69778;-30
2021/01/26 11:59:44;;;;;;;28.85;12.40;;;;;;;32.04;49.75;100772.41;4827097;29;66462;-31
2021/01/26 12:02:15;;;;;;;19.45;11.45;;;;;;;32.02;49.98;100791.59;4822943;29;69356;-31
2021/01/26 12:04:46;;;;;;;19.13;11.38;;;;;;;31.92;49.80;100785.91;4825263;29;66150;-31
2021/01/26 12:07:17;;;;;;;16.25;11.45;;;;;;;31.87;49.65;100784.91;4823502;29;68629;-31
2021/01/26 12:09:48;;;;;;;23.65;12.05;;;;;;;31.82;50.33;100789.13;4817124;29;65513;-32